sensor_id;sensor_type;location;lat;lon;timestamp;P1;durP1;ratioP1;P2;durP2;ratioP2
26106;SDS011;13866;50.748;12.630;2022-10-22T00:02:24;20.57;;;12.03;;
26106;SDS011;13866;50.748;12.630;2022-10-22T00:04:51;14.23;;;12.57;;
26106;SDS011;13866;50.748;12.630;2022-10-22T00:07:18;13.90;;;12.70;;
26106;SDS011;13866;50.748;12.630;2022-10-22T00:09:46;13.10;;;12.10;;
26106;SDS011;13866;50.748;12.630;2022-10-22T00:12:12;14.30;;;12.20;;
26106;SDS011;13866;50.748;12.630;2022-10-22T00:14:39;13.73;;;12.73;;
26106;SDS011;13866;50.748;12.630;2022-10-22T00:17:05;13.33;;;12.33;;
26106;SDS011;13866;50.748;12.630;2022-10-22T00:19:30;13.93;;;12.43;;
26106;SDS011;13866;50.748;12.630;2022-10-22T00:21:56;18.47;;;13.47;;
26106;SDS011;13866;50.748;12.630;2022-10-22T00:24:22;13.40;;;12.27;;
26106;SDS011;13866;50.748;12.630;2022-10-22T00:26:48;14.03;;;12.63;;
26106;SDS011;13866;50.748;12.630;2022-10-22T00:29:14;15.60;;;11.53;;
26106;SDS011;13866;50.748;12.630;2022-10-22T00:31:42;14.93;;;13.30;;
26106;SDS011;13866;50.748;12.630;2022-10-22T00:34:13;12.90;;;11.70;;
26106;SDS011;13866;50.748;12.630;2022-10-22T00:36:42;17.13;;;10.80;;
26106;SDS011;13866;50.748;12.630;2022-10-22T00:39:08;11.83;;;10.73;;
26106;SDS011;13866;50.748;12.630;2022-10-22T00:41:34;12.60;;;11.57;;
26106;SDS011;13866;50.748;12.630;2022-10-22T00:44:03;11.47;;;10.57;;
26106;SDS011;13866;50.748;12.630;2022-10-22T00:46:30;13.43;;;11.97;;
26106;SDS011;13866;50.748;12.630;2022-10-22T00:48:57;12.07;;;11.03;;
26106;SDS011;13866;50.748;12.630;2022-10-22T00:51:27;9.60;;;9.03;;
26106;SDS011;13866;50.748;12.630;2022-10-22T00:53:56;10.43;;;9.20;;
26106;SDS011;13866;50.748;12.630;2022-10-22T00:56:26;10.83;;;9.73;;
26106;SDS011;13866;50.748;12.630;2022-10-22T00:58:52;9.33;;;8.73;;
26106;SDS011;13866;50.748;12.630;2022-10-22T01:01:26;11.93;;;9.37;;
26106;SDS011;13866;50.748;12.630;2022-10-22T01:03:53;9.90;;;9.10;;
26106;SDS011;13866;50.748;12.630;2022-10-22T01:06:24;8.87;;;8.30;;
26106;SDS011;13866;50.748;12.630;2022-10-22T01:09:15;10.27;;;9.37;;
26106;SDS011;13866;50.748;12.630;2022-10-22T01:14:46;13.30;;;8.87;;
26106;SDS011;13866;50.748;12.630;2022-10-22T01:22:36;10.23;;;9.30;;
26106;SDS011;13866;50.748;12.630;2022-10-22T01:30:48;10.50;;;9.53;;
26106;SDS011;13866;50.748;12.630;2022-10-22T01:33:17;21.97;;;8.90;;
26106;SDS011;13866;50.748;12.630;2022-10-22T01:35:46;10.30;;;8.33;;
26106;SDS011;13866;50.748;12.630;2022-10-22T01:38:14;20.40;;;10.83;;
26106;SDS011;13866;50.748;12.630;2022-10-22T01:40:43;9.00;;;8.10;;
26106;SDS011;13866;50.748;12.630;2022-10-22T01:43:10;8.93;;;8.33;;
26106;SDS011;13866;50.748;12.630;2022-10-22T01:45:41;8.70;;;8.03;;
26106;SDS011;13866;50.748;12.630;2022-10-22T01:48:29;10.90;;;9.07;;
26106;SDS011;13866;50.748;12.630;2022-10-22T01:54:26;9.17;;;8.37;;
26106;SDS011;13866;50.748;12.630;2022-10-22T01:57:16;8.67;;;8.00;;
26106;SDS011;13866;50.748;12.630;2022-10-22T02:00:03;19.60;;;8.20;;
26106;SDS011;13866;50.748;12.630;2022-10-22T02:02:36;8.23;;;7.43;;
26106;SDS011;13866;50.748;12.630;2022-10-22T02:07:56;16.10;;;8.37;;
26106;SDS011;13866;50.748;12.630;2022-10-22T02:10:26;9.83;;;8.97;;
26106;SDS011;13866;50.748;12.630;2022-10-22T02:12:53;10.00;;;8.23;;
26106;SDS011;13866;50.748;12.630;2022-10-22T02:15:20;11.20;;;8.13;;
26106;SDS011;13866;50.748;12.630;2022-10-22T02:17:49;8.57;;;7.87;;
26106;SDS011;13866;50.748;12.630;2022-10-22T02:20:17;9.23;;;8.40;;
26106;SDS011;13866;50.748;12.630;2022-10-22T02:22:46;8.80;;;8.13;;
26106;SDS011;13866;50.748;12.630;2022-10-22T02:25:12;9.70;;;8.80;;
26106;SDS011;13866;50.748;12.630;2022-10-22T02:27:53;8.47;;;7.57;;
26106;SDS011;13866;50.748;12.630;2022-10-22T02:30:29;7.53;;;7.27;;
26106;SDS011;13866;50.748;12.630;2022-10-22T02:32:58;9.20;;;8.50;;
26106;SDS011;13866;50.748;12.630;2022-10-22T02:35:37;11.47;;;8.20;;
26106;SDS011;13866;50.748;12.630;2022-10-22T02:38:05;8.20;;;7.70;;
26106;SDS011;13866;50.748;12.630;2022-10-22T02:40:32;7.37;;;6.97;;
26106;SDS011;13866;50.748;12.630;2022-10-22T02:42:57;8.17;;;7.67;;
26106;SDS011;13866;50.748;12.630;2022-10-22T02:45:23;8.10;;;7.70;;
26106;SDS011;13866;50.748;12.630;2022-10-22T02:47:49;7.47;;;7.13;;
26106;SDS011;13866;50.748;12.630;2022-10-22T02:50:15;7.70;;;7.00;;
26106;SDS011;13866;50.748;12.630;2022-10-22T02:52:41;8.10;;;7.50;;
26106;SDS011;13866;50.748;12.630;2022-10-22T02:55:06;8.43;;;7.83;;
26106;SDS011;13866;50.748;12.630;2022-10-22T02:57:32;7.93;;;7.17;;
26106;SDS011;13866;50.748;12.630;2022-10-22T02:59:58;8.40;;;7.87;;
26106;SDS011;13866;50.748;12.630;2022-10-22T03:02:24;8.90;;;8.13;;
26106;SDS011;13866;50.748;12.630;2022-10-22T03:04:49;8.50;;;7.80;;
26106;SDS011;13866;50.748;12.630;2022-10-22T03:07:15;7.97;;;7.27;;
26106;SDS011;13866;50.748;12.630;2022-10-22T03:09:40;7.93;;;7.50;;
26106;SDS011;13866;50.748;12.630;2022-10-22T03:12:06;8.80;;;8.07;;
26106;SDS011;13866;50.748;12.630;2022-10-22T03:14:32;9.30;;;7.53;;
26106;SDS011;13866;50.748;12.630;2022-10-22T03:16:59;8.10;;;7.63;;
26106;SDS011;13866;50.748;12.630;2022-10-22T03:19:24;7.63;;;7.03;;
26106;SDS011;13866;50.748;12.630;2022-10-22T03:21:52;8.87;;;7.50;;
26106;SDS011;13866;50.748;12.630;2022-10-22T03:24:37;7.80;;;7.30;;
26106;SDS011;13866;50.748;12.630;2022-10-22T03:27:07;9.40;;;8.33;;
26106;SDS011;13866;50.748;12.630;2022-10-22T03:29:35;7.80;;;7.20;;
26106;SDS011;13866;50.748;12.630;2022-10-22T03:32:02;9.90;;;8.23;;
26106;SDS011;13866;50.748;12.630;2022-10-22T03:34:28;9.23;;;8.53;;
26106;SDS011;13866;50.748;12.630;2022-10-22T03:36:53;9.70;;;8.63;;
26106;SDS011;13866;50.748;12.630;2022-10-22T03:39:21;8.97;;;8.37;;
26106;SDS011;13866;50.748;12.630;2022-10-22T03:41:48;8.13;;;7.60;;
26106;SDS011;13866;50.748;12.630;2022-10-22T03:44:15;14.43;;;8.37;;
26106;SDS011;13866;50.748;12.630;2022-10-22T03:46:41;13.83;;;11.13;;
26106;SDS011;13866;50.748;12.630;2022-10-22T03:49:07;8.27;;;7.73;;
26106;SDS011;13866;50.748;12.630;2022-10-22T03:51:33;8.83;;;8.20;;
26106;SDS011;13866;50.748;12.630;2022-10-22T03:53:59;7.63;;;7.23;;
26106;SDS011;13866;50.748;12.630;2022-10-22T03:56:25;9.60;;;8.93;;
26106;SDS011;13866;50.748;12.630;2022-10-22T03:58:54;9.17;;;8.57;;
26106;SDS011;13866;50.748;12.630;2022-10-22T04:01:21;9.40;;;8.30;;
26106;SDS011;13866;50.748;12.630;2022-10-22T04:03:47;10.53;;;9.50;;
26106;SDS011;13866;50.748;12.630;2022-10-22T04:06:12;11.43;;;10.53;;
26106;SDS011;13866;50.748;12.630;2022-10-22T04:08:38;9.00;;;8.50;;
26106;SDS011;13866;50.748;12.630;2022-10-22T04:11:05;8.60;;;8.23;;
26106;SDS011;13866;50.748;12.630;2022-10-22T04:13:31;8.57;;;8.17;;
26106;SDS011;13866;50.748;12.630;2022-10-22T04:16:09;7.83;;;7.53;;
26106;SDS011;13866;50.748;12.630;2022-10-22T04:18:43;8.17;;;7.70;;
26106;SDS011;13866;50.748;12.630;2022-10-22T04:21:10;9.90;;;8.80;;
26106;SDS011;13866;50.748;12.630;2022-10-22T04:23:37;9.10;;;8.40;;
26106;SDS011;13866;50.748;12.630;2022-10-22T04:26:04;10.77;;;10.00;;
26106;SDS011;13866;50.748;12.630;2022-10-22T04:28:31;8.93;;;8.23;;
26106;SDS011;13866;50.748;12.630;2022-10-22T04:30:57;9.33;;;8.43;;
26106;SDS011;13866;50.748;12.630;2022-10-22T04:33:23;10.20;;;8.77;;
26106;SDS011;13866;50.748;12.630;2022-10-22T04:35:49;9.27;;;8.50;;
26106;SDS011;13866;50.748;12.630;2022-10-22T04:38:15;9.50;;;8.60;;
26106;SDS011;13866;50.748;12.630;2022-10-22T04:40:40;13.50;;;8.00;;
26106;SDS011;13866;50.748;12.630;2022-10-22T04:43:06;8.63;;;8.23;;
26106;SDS011;13866;50.748;12.630;2022-10-22T04:45:32;8.73;;;8.13;;
26106;SDS011;13866;50.748;12.630;2022-10-22T04:47:58;9.17;;;8.33;;
26106;SDS011;13866;50.748;12.630;2022-10-22T04:50:24;8.20;;;7.73;;
26106;SDS011;13866;50.748;12.630;2022-10-22T04:52:49;16.00;;;9.70;;
26106;SDS011;13866;50.748;12.630;2022-10-22T04:55:15;13.80;;;10.67;;
26106;SDS011;13866;50.748;12.630;2022-10-22T04:57:40;9.67;;;9.00;;
26106;SDS011;13866;50.748;12.630;2022-10-22T05:00:06;10.57;;;9.20;;
26106;SDS011;13866;50.748;12.630;2022-10-22T05:02:32;11.73;;;8.37;;
26106;SDS011;13866;50.748;12.630;2022-10-22T05:04:58;9.60;;;8.87;;
26106;SDS011;13866;50.748;12.630;2022-10-22T05:07:23;9.63;;;8.93;;
26106;SDS011;13866;50.748;12.630;2022-10-22T05:09:49;14.93;;;8.50;;
26106;SDS011;13866;50.748;12.630;2022-10-22T05:12:14;9.70;;;8.93;;
26106;SDS011;13866;50.748;12.630;2022-10-22T05:14:40;9.43;;;8.60;;
26106;SDS011;13866;50.748;12.630;2022-10-22T05:17:05;12.13;;;9.30;;
26106;SDS011;13866;50.748;12.630;2022-10-22T05:19:31;10.60;;;9.53;;
26106;SDS011;13866;50.748;12.630;2022-10-22T11:30:11;1.60;;;1.60;;
26106;SDS011;13866;50.748;12.630;2022-10-22T11:32:40;2.43;;;1.53;;
26106;SDS011;13866;50.748;12.630;2022-10-22T11:35:11;1.50;;;1.50;;
26106;SDS011;13866;50.748;12.630;2022-10-22T11:37:41;2.57;;;1.27;;
26106;SDS011;13866;50.748;12.630;2022-10-22T11:42:50;1.27;;;1.27;;
26106;SDS011;13866;50.748;12.630;2022-10-22T11:45:25;1.13;;;1.13;;
26106;SDS011;13866;50.748;12.630;2022-10-22T12:11:23;3.33;;;1.43;;
26106;SDS011;13866;50.748;12.630;2022-10-22T12:14:13;16.23;;;1.03;;
26106;SDS011;13866;50.748;12.630;2022-10-22T12:17:09;1.23;;;0.80;;
26106;SDS011;13866;50.748;12.630;2022-10-22T12:19:47;0.90;;;0.90;;
26106;SDS011;13866;50.748;12.630;2022-10-22T12:22:16;0.70;;;0.67;;
26106;SDS011;13866;50.748;12.630;2022-10-22T12:24:49;2.53;;;0.70;;
26106;SDS011;13866;50.748;12.630;2022-10-22T12:27:27;0.93;;;0.93;;
26106;SDS011;13866;50.748;12.630;2022-10-22T12:29:59;0.97;;;0.93;;
26106;SDS011;13866;50.748;12.630;2022-10-22T12:32:37;0.80;;;0.70;;
26106;SDS011;13866;50.748;12.630;2022-10-22T12:35:06;1.03;;;0.73;;
26106;SDS011;13866;50.748;12.630;2022-10-22T12:37:35;1.90;;;0.87;;
26106;SDS011;13866;50.748;12.630;2022-10-22T12:40:09;0.63;;;0.63;;
26106;SDS011;13866;50.748;12.630;2022-10-22T12:42:48;0.70;;;0.70;;
26106;SDS011;13866;50.748;12.630;2022-10-22T12:45:16;0.80;;;0.80;;
26106;SDS011;13866;50.748;12.630;2022-10-22T12:47:46;0.63;;;0.60;;
26106;SDS011;13866;50.748;12.630;2022-10-22T12:50:17;1.40;;;0.80;;
26106;SDS011;13866;50.748;12.630;2022-10-22T12:52:46;0.70;;;0.70;;
26106;SDS011;13866;50.748;12.630;2022-10-22T12:55:14;2.80;;;1.13;;
26106;SDS011;13866;50.748;12.630;2022-10-22T12:57:41;2.87;;;0.87;;
26106;SDS011;13866;50.748;12.630;2022-10-22T13:00:18;0.80;;;0.80;;
26106;SDS011;13866;50.748;12.630;2022-10-22T13:02:52;0.77;;;0.77;;
26106;SDS011;13866;50.748;12.630;2022-10-22T13:05:22;1.17;;;0.90;;
26106;SDS011;13866;50.748;12.630;2022-10-22T13:08:10;2.30;;;0.87;;
26106;SDS011;13866;50.748;12.630;2022-10-22T13:10:40;0.93;;;0.93;;
26106;SDS011;13866;50.748;12.630;2022-10-22T13:13:31;0.83;;;0.83;;
26106;SDS011;13866;50.748;12.630;2022-10-22T13:18:40;1.03;;;1.03;;
26106;SDS011;13866;50.748;12.630;2022-10-22T13:21:21;2.13;;;0.90;;
26106;SDS011;13866;50.748;12.630;2022-10-22T13:23:56;4.20;;;1.87;;
26106;SDS011;13866;50.748;12.630;2022-10-22T13:26:24;1.40;;;1.30;;
26106;SDS011;13866;50.748;12.630;2022-10-22T13:28:56;1.97;;;1.50;;
26106;SDS011;13866;50.748;12.630;2022-10-22T13:31:24;1.57;;;1.57;;
26106;SDS011;13866;50.748;12.630;2022-10-22T13:33:51;2.03;;;1.00;;
26106;SDS011;13866;50.748;12.630;2022-10-22T13:36:20;1.13;;;1.13;;
26106;SDS011;13866;50.748;12.630;2022-10-22T13:38:47;1.17;;;1.17;;
26106;SDS011;13866;50.748;12.630;2022-10-22T13:41:23;2.53;;;1.30;;
26106;SDS011;13866;50.748;12.630;2022-10-22T13:43:50;3.10;;;1.57;;
26106;SDS011;13866;50.748;12.630;2022-10-22T13:46:17;2.13;;;1.50;;
26106;SDS011;13866;50.748;12.630;2022-10-22T13:48:43;3.43;;;1.73;;
26106;SDS011;13866;50.748;12.630;2022-10-22T13:51:14;1.70;;;1.60;;
26106;SDS011;13866;50.748;12.630;2022-10-22T13:53:44;2.43;;;1.33;;
26106;SDS011;13866;50.748;12.630;2022-10-22T13:56:12;1.93;;;1.80;;
26106;SDS011;13866;50.748;12.630;2022-10-22T13:58:39;1.20;;;1.10;;
26106;SDS011;13866;50.748;12.630;2022-10-22T14:01:09;2.47;;;1.40;;
26106;SDS011;13866;50.748;12.630;2022-10-22T14:03:48;1.77;;;1.40;;
26106;SDS011;13866;50.748;12.630;2022-10-22T14:06:16;2.57;;;2.00;;
26106;SDS011;13866;50.748;12.630;2022-10-22T14:08:43;2.23;;;2.07;;
26106;SDS011;13866;50.748;12.630;2022-10-22T14:11:11;3.23;;;2.50;;
26106;SDS011;13866;50.748;12.630;2022-10-22T14:13:37;2.40;;;2.30;;
26106;SDS011;13866;50.748;12.630;2022-10-22T14:16:02;2.23;;;1.50;;
26106;SDS011;13866;50.748;12.630;2022-10-22T14:18:30;2.63;;;1.53;;
26106;SDS011;13866;50.748;12.630;2022-10-22T14:20:58;1.53;;;1.53;;
26106;SDS011;13866;50.748;12.630;2022-10-22T14:23:26;2.00;;;1.50;;
26106;SDS011;13866;50.748;12.630;2022-10-22T14:25:53;1.90;;;1.80;;
26106;SDS011;13866;50.748;12.630;2022-10-22T14:28:19;1.87;;;1.77;;
26106;SDS011;13866;50.748;12.630;2022-10-22T14:30:45;4.20;;;2.03;;
26106;SDS011;13866;50.748;12.630;2022-10-22T14:33:12;2.23;;;2.03;;
26106;SDS011;13866;50.748;12.630;2022-10-22T14:35:39;1.50;;;1.40;;
26106;SDS011;13866;50.748;12.630;2022-10-22T14:38:04;2.30;;;2.17;;
26106;SDS011;13866;50.748;12.630;2022-10-22T14:40:30;12.73;;;2.17;;
26106;SDS011;13866;50.748;12.630;2022-10-22T14:42:55;11.50;;;1.83;;
26106;SDS011;13866;50.748;12.630;2022-10-22T14:45:22;2.93;;;2.10;;
26106;SDS011;13866;50.748;12.630;2022-10-22T14:47:49;5.33;;;1.80;;
26106;SDS011;13866;50.748;12.630;2022-10-22T14:50:16;2.70;;;1.87;;
26106;SDS011;13866;50.748;12.630;2022-10-22T14:52:43;1.67;;;1.60;;
26106;SDS011;13866;50.748;12.630;2022-10-22T14:55:09;2.40;;;1.30;;
26106;SDS011;13866;50.748;12.630;2022-10-22T14:57:36;1.77;;;1.67;;
26106;SDS011;13866;50.748;12.630;2022-10-22T15:00:05;2.50;;;2.10;;
26106;SDS011;13866;50.748;12.630;2022-10-22T15:02:36;10.27;;;2.07;;
26106;SDS011;13866;50.748;12.630;2022-10-22T15:05:01;3.00;;;1.87;;
26106;SDS011;13866;50.748;12.630;2022-10-22T15:07:27;2.33;;;2.00;;
26106;SDS011;13866;50.748;12.630;2022-10-22T15:09:53;5.37;;;1.97;;
26106;SDS011;13866;50.748;12.630;2022-10-22T15:12:18;5.30;;;2.20;;
26106;SDS011;13866;50.748;12.630;2022-10-22T15:14:45;1.97;;;1.87;;
26106;SDS011;13866;50.748;12.630;2022-10-22T15:17:11;3.17;;;1.93;;
26106;SDS011;13866;50.748;12.630;2022-10-22T15:19:36;2.30;;;2.13;;
26106;SDS011;13866;50.748;12.630;2022-10-22T15:22:02;1.80;;;1.80;;
26106;SDS011;13866;50.748;12.630;2022-10-22T15:24:28;1.60;;;1.60;;
26106;SDS011;13866;50.748;12.630;2022-10-22T15:26:53;3.70;;;1.77;;
26106;SDS011;13866;50.748;12.630;2022-10-22T15:29:19;4.70;;;2.20;;
26106;SDS011;13866;50.748;12.630;2022-10-22T15:34:19;9.30;;;1.90;;
26106;SDS011;13866;50.748;12.630;2022-10-22T15:36:47;2.03;;;2.03;;
26106;SDS011;13866;50.748;12.630;2022-10-22T15:39:13;1.47;;;1.47;;
26106;SDS011;13866;50.748;12.630;2022-10-22T15:41:39;3.63;;;2.20;;
26106;SDS011;13866;50.748;12.630;2022-10-22T15:44:05;1.97;;;1.77;;
26106;SDS011;13866;50.748;12.630;2022-10-22T15:46:31;1.90;;;1.80;;
26106;SDS011;13866;50.748;12.630;2022-10-22T15:48:57;2.10;;;2.10;;
26106;SDS011;13866;50.748;12.630;2022-10-22T15:51:23;2.20;;;2.20;;
26106;SDS011;13866;50.748;12.630;2022-10-22T15:53:50;1.67;;;1.67;;
26106;SDS011;13866;50.748;12.630;2022-10-22T15:56:16;3.63;;;2.40;;
26106;SDS011;13866;50.748;12.630;2022-10-22T15:58:42;2.37;;;2.27;;
26106;SDS011;13866;50.748;12.630;2022-10-22T16:01:11;3.57;;;2.77;;
26106;SDS011;13866;50.748;12.630;2022-10-22T16:03:37;2.70;;;2.50;;
26106;SDS011;13866;50.748;12.630;2022-10-22T16:06:04;2.10;;;2.00;;
26106;SDS011;13866;50.748;12.630;2022-10-22T16:08:31;2.30;;;2.30;;
26106;SDS011;13866;50.748;12.630;2022-10-22T16:10:57;2.43;;;2.33;;
26106;SDS011;13866;50.748;12.630;2022-10-22T16:13:23;3.10;;;2.63;;
26106;SDS011;13866;50.748;12.630;2022-10-22T16:15:49;2.20;;;2.10;;
26106;SDS011;13866;50.748;12.630;2022-10-22T16:18:16;2.50;;;2.40;;
26106;SDS011;13866;50.748;12.630;2022-10-22T16:20:42;3.27;;;2.20;;
26106;SDS011;13866;50.748;12.630;2022-10-22T16:23:07;10.47;;;2.20;;
26106;SDS011;13866;50.748;12.630;2022-10-22T16:25:39;4.80;;;2.70;;
26106;SDS011;13866;50.748;12.630;2022-10-22T16:28:06;3.83;;;3.63;;
26106;SDS011;13866;50.748;12.630;2022-10-22T16:30:33;15.23;;;4.80;;
26106;SDS011;13866;50.748;12.630;2022-10-22T16:32:59;9.90;;;4.33;;
26106;SDS011;13866;50.748;12.630;2022-10-22T16:35:25;5.70;;;4.80;;
26106;SDS011;13866;50.748;12.630;2022-10-22T16:37:51;3.33;;;3.17;;
26106;SDS011;13866;50.748;12.630;2022-10-22T16:40:16;7.53;;;4.27;;
26106;SDS011;13866;50.748;12.630;2022-10-22T16:42:42;9.60;;;3.13;;
26106;SDS011;13866;50.748;12.630;2022-10-22T16:45:08;10.33;;;3.30;;
26106;SDS011;13866;50.748;12.630;2022-10-22T16:47:34;9.20;;;3.00;;
26106;SDS011;13866;50.748;12.630;2022-10-22T16:50:00;3.00;;;2.80;;
26106;SDS011;13866;50.748;12.630;2022-10-22T16:52:25;3.33;;;3.13;;
26106;SDS011;13866;50.748;12.630;2022-10-22T16:54:51;6.30;;;3.50;;
26106;SDS011;13866;50.748;12.630;2022-10-22T16:57:17;8.37;;;4.07;;
26106;SDS011;13866;50.748;12.630;2022-10-22T16:59:42;4.00;;;2.93;;
26106;SDS011;13866;50.748;12.630;2022-10-22T17:02:11;2.60;;;2.50;;
26106;SDS011;13866;50.748;12.630;2022-10-22T17:04:36;12.40;;;2.87;;
26106;SDS011;13866;50.748;12.630;2022-10-22T17:07:02;3.27;;;3.00;;
26106;SDS011;13866;50.748;12.630;2022-10-22T17:09:27;4.83;;;2.73;;
26106;SDS011;13866;50.748;12.630;2022-10-22T17:11:53;4.00;;;2.63;;
26106;SDS011;13866;50.748;12.630;2022-10-22T17:14:19;8.70;;;3.20;;
26106;SDS011;13866;50.748;12.630;2022-10-22T17:16:45;4.30;;;4.10;;
26106;SDS011;13866;50.748;12.630;2022-10-22T17:19:17;4.57;;;4.27;;
26106;SDS011;13866;50.748;12.630;2022-10-22T17:21:42;5.70;;;4.47;;
26106;SDS011;13866;50.748;12.630;2022-10-22T17:24:08;6.50;;;4.60;;
26106;SDS011;13866;50.748;12.630;2022-10-22T17:26:34;4.90;;;4.10;;
26106;SDS011;13866;50.748;12.630;2022-10-22T17:29:01;6.40;;;3.60;;
26106;SDS011;13866;50.748;12.630;2022-10-22T17:31:31;9.77;;;4.20;;
26106;SDS011;13866;50.748;12.630;2022-10-22T17:34:01;4.37;;;3.97;;
26106;SDS011;13866;50.748;12.630;2022-10-22T17:36:28;5.00;;;4.70;;
26106;SDS011;13866;50.748;12.630;2022-10-22T17:38:55;5.87;;;4.80;;
26106;SDS011;13866;50.748;12.630;2022-10-22T17:41:26;7.50;;;3.40;;
26106;SDS011;13866;50.748;12.630;2022-10-22T17:43:57;3.60;;;3.50;;
26106;SDS011;13866;50.748;12.630;2022-10-22T17:46:26;4.20;;;3.30;;
26106;SDS011;13866;50.748;12.630;2022-10-22T17:48:54;2.70;;;2.60;;
26106;SDS011;13866;50.748;12.630;2022-10-22T17:51:21;9.30;;;3.40;;
26106;SDS011;13866;50.748;12.630;2022-10-22T17:53:48;3.80;;;3.20;;
26106;SDS011;13866;50.748;12.630;2022-10-22T17:56:17;3.43;;;3.13;;
26106;SDS011;13866;50.748;12.630;2022-10-22T17:58:44;6.70;;;3.10;;
26106;SDS011;13866;50.748;12.630;2022-10-22T18:01:32;6.40;;;3.90;;
26106;SDS011;13866;50.748;12.630;2022-10-22T18:04:03;4.77;;;2.93;;
26106;SDS011;13866;50.748;12.630;2022-10-22T18:06:31;12.33;;;4.03;;
26106;SDS011;13866;50.748;12.630;2022-10-22T18:08:57;6.47;;;3.20;;
26106;SDS011;13866;50.748;12.630;2022-10-22T18:11:24;3.20;;;3.10;;
26106;SDS011;13866;50.748;12.630;2022-10-22T18:13:52;6.40;;;4.50;;
26106;SDS011;13866;50.748;12.630;2022-10-22T18:16:19;4.13;;;3.83;;
26106;SDS011;13866;50.748;12.630;2022-10-22T18:18:45;12.70;;;4.80;;
26106;SDS011;13866;50.748;12.630;2022-10-22T18:21:16;4.73;;;4.33;;
26106;SDS011;13866;50.748;12.630;2022-10-22T18:23:41;9.27;;;4.00;;
26106;SDS011;13866;50.748;12.630;2022-10-22T18:26:07;4.37;;;4.17;;
26106;SDS011;13866;50.748;12.630;2022-10-22T18:28:33;3.50;;;3.30;;
26106;SDS011;13866;50.748;12.630;2022-10-22T18:30:58;5.03;;;3.23;;
26106;SDS011;13866;50.748;12.630;2022-10-22T18:33:24;4.17;;;3.37;;
26106;SDS011;13866;50.748;12.630;2022-10-22T18:35:50;3.23;;;2.50;;
26106;SDS011;13866;50.748;12.630;2022-10-22T18:38:16;3.63;;;3.20;;
26106;SDS011;13866;50.748;12.630;2022-10-22T18:40:46;2.93;;;2.73;;
26106;SDS011;13866;50.748;12.630;2022-10-22T18:43:12;4.70;;;3.83;;
26106;SDS011;13866;50.748;12.630;2022-10-22T18:45:45;2.90;;;2.80;;
26106;SDS011;13866;50.748;12.630;2022-10-22T18:48:12;3.47;;;3.10;;
26106;SDS011;13866;50.748;12.630;2022-10-22T18:50:39;5.90;;;3.27;;
26106;SDS011;13866;50.748;12.630;2022-10-22T18:53:05;7.80;;;2.93;;
26106;SDS011;13866;50.748;12.630;2022-10-22T18:55:30;9.83;;;2.93;;
26106;SDS011;13866;50.748;12.630;2022-10-22T18:57:57;4.43;;;3.70;;
26106;SDS011;13866;50.748;12.630;2022-10-22T19:00:23;2.90;;;2.80;;
26106;SDS011;13866;50.748;12.630;2022-10-22T19:02:50;3.50;;;3.33;;
26106;SDS011;13866;50.748;12.630;2022-10-22T19:05:17;4.20;;;3.03;;
26106;SDS011;13866;50.748;12.630;2022-10-22T19:07:42;3.97;;;3.67;;
26106;SDS011;13866;50.748;12.630;2022-10-22T19:10:08;5.30;;;3.10;;
26106;SDS011;13866;50.748;12.630;2022-10-22T19:12:33;4.30;;;3.57;;
26106;SDS011;13866;50.748;12.630;2022-10-22T19:14:59;3.30;;;2.67;;
26106;SDS011;13866;50.748;12.630;2022-10-22T19:17:25;9.83;;;3.13;;
26106;SDS011;13866;50.748;12.630;2022-10-22T19:19:51;10.83;;;2.83;;
26106;SDS011;13866;50.748;12.630;2022-10-22T19:22:17;4.00;;;3.80;;
26106;SDS011;13866;50.748;12.630;2022-10-22T19:24:42;4.93;;;3.10;;
26106;SDS011;13866;50.748;12.630;2022-10-22T19:27:08;8.17;;;3.60;;
26106;SDS011;13866;50.748;12.630;2022-10-22T19:29:33;2.93;;;2.73;;
26106;SDS011;13866;50.748;12.630;2022-10-22T19:32:00;4.70;;;2.90;;
26106;SDS011;13866;50.748;12.630;2022-10-22T19:34:25;3.93;;;2.70;;
26106;SDS011;13866;50.748;12.630;2022-10-22T19:36:51;3.77;;;3.57;;
26106;SDS011;13866;50.748;12.630;2022-10-22T19:39:17;8.90;;;3.43;;
26106;SDS011;13866;50.748;12.630;2022-10-22T19:41:43;3.70;;;3.40;;
26106;SDS011;13866;50.748;12.630;2022-10-22T19:44:09;3.23;;;2.90;;
26106;SDS011;13866;50.748;12.630;2022-10-22T19:46:34;11.33;;;3.47;;
26106;SDS011;13866;50.748;12.630;2022-10-22T19:49:00;4.43;;;3.73;;
26106;SDS011;13866;50.748;12.630;2022-10-22T19:51:27;12.73;;;4.47;;
26106;SDS011;13866;50.748;12.630;2022-10-22T19:53:58;4.33;;;4.07;;
26106;SDS011;13866;50.748;12.630;2022-10-22T19:56:28;3.90;;;3.47;;
26106;SDS011;13866;50.748;12.630;2022-10-22T19:58:54;13.50;;;3.60;;
26106;SDS011;13866;50.748;12.630;2022-10-22T20:01:20;18.17;;;4.10;;
26106;SDS011;13866;50.748;12.630;2022-10-22T20:03:46;4.73;;;4.33;;
26106;SDS011;13866;50.748;12.630;2022-10-22T20:06:12;3.60;;;3.40;;
26106;SDS011;13866;50.748;12.630;2022-10-22T20:08:39;8.00;;;3.43;;
26106;SDS011;13866;50.748;12.630;2022-10-22T20:11:06;2.67;;;2.47;;
26106;SDS011;13866;50.748;12.630;2022-10-22T20:13:34;11.23;;;3.50;;
26106;SDS011;13866;50.748;12.630;2022-10-22T20:16:00;4.00;;;2.77;;
26106;SDS011;13866;50.748;12.630;2022-10-22T20:18:26;12.10;;;2.70;;
26106;SDS011;13866;50.748;12.630;2022-10-22T20:20:51;17.37;;;4.00;;
26106;SDS011;13866;50.748;12.630;2022-10-22T20:23:17;9.23;;;3.17;;
26106;SDS011;13866;50.748;12.630;2022-10-22T20:25:43;4.00;;;3.07;;
26106;SDS011;13866;50.748;12.630;2022-10-22T20:28:10;3.57;;;2.67;;
26106;SDS011;13866;50.748;12.630;2022-10-22T20:30:41;8.43;;;2.57;;
26106;SDS011;13866;50.748;12.630;2022-10-22T20:33:08;5.83;;;2.60;;
26106;SDS011;13866;50.748;12.630;2022-10-22T20:35:34;5.27;;;2.70;;
26106;SDS011;13866;50.748;12.630;2022-10-22T20:38:00;3.20;;;2.03;;
26106;SDS011;13866;50.748;12.630;2022-10-22T20:40:25;2.70;;;2.53;;
26106;SDS011;13866;50.748;12.630;2022-10-22T20:42:51;10.50;;;2.70;;
26106;SDS011;13866;50.748;12.630;2022-10-22T20:45:17;4.00;;;3.00;;
26106;SDS011;13866;50.748;12.630;2022-10-22T20:47:42;3.67;;;2.40;;
26106;SDS011;13866;50.748;12.630;2022-10-22T20:50:09;4.53;;;2.07;;
26106;SDS011;13866;50.748;12.630;2022-10-22T20:52:36;10.80;;;1.83;;
26106;SDS011;13866;50.748;12.630;2022-10-22T20:55:02;3.70;;;2.40;;
26106;SDS011;13866;50.748;12.630;2022-10-22T20:57:28;2.40;;;2.30;;
26106;SDS011;13866;50.748;12.630;2022-10-22T20:59:53;2.67;;;2.57;;
26106;SDS011;13866;50.748;12.630;2022-10-22T21:02:20;3.53;;;2.97;;
26106;SDS011;13866;50.748;12.630;2022-10-22T21:04:46;3.30;;;3.00;;
26106;SDS011;13866;50.748;12.630;2022-10-22T21:07:11;2.20;;;2.20;;
26106;SDS011;13866;50.748;12.630;2022-10-22T21:09:37;2.83;;;2.27;;
26106;SDS011;13866;50.748;12.630;2022-10-22T21:12:03;3.03;;;1.97;;
26106;SDS011;13866;50.748;12.630;2022-10-22T21:14:30;4.23;;;1.90;;
26106;SDS011;13866;50.748;12.630;2022-10-22T21:16:56;2.90;;;2.80;;
26106;SDS011;13866;50.748;12.630;2022-10-22T21:19:23;9.30;;;2.40;;
26106;SDS011;13866;50.748;12.630;2022-10-22T21:21:50;2.00;;;1.90;;
26106;SDS011;13866;50.748;12.630;2022-10-22T21:24:15;2.53;;;2.20;;
26106;SDS011;13866;50.748;12.630;2022-10-22T21:26:41;4.43;;;1.93;;
26106;SDS011;13866;50.748;12.630;2022-10-22T21:29:08;2.60;;;1.87;;
26106;SDS011;13866;50.748;12.630;2022-10-22T21:31:35;3.10;;;2.47;;
26106;SDS011;13866;50.748;12.630;2022-10-22T21:34:01;8.27;;;2.67;;
26106;SDS011;13866;50.748;12.630;2022-10-22T21:36:26;2.37;;;1.97;;